createdAt,value
2017-09-19T00:01:42.681Z,14.33
2017-09-19T00:04:09.228Z,14.90
2017-09-19T00:06:35.664Z,15.70
2017-09-19T00:09:02.911Z,15.57
2017-09-19T00:11:29.354Z,14.80
2017-09-19T00:13:55.840Z,14.80
2017-09-19T00:16:22.313Z,13.40
2017-09-19T00:18:48.757Z,14.63
2017-09-19T00:21:15.196Z,14.80
2017-09-19T00:23:41.732Z,14.23
2017-09-19T00:26:08.885Z,15.27
2017-09-19T00:28:35.318Z,16.03
2017-09-19T00:31:01.754Z,16.20
2017-09-19T00:33:28.290Z,15.67
2017-09-19T00:35:54.656Z,15.80
2017-09-19T00:38:21.047Z,15.90
2017-09-19T00:40:47.490Z,15.40
2017-09-19T00:43:14.645Z,15.30
2017-09-19T00:45:41.090Z,14.80
2017-09-19T00:48:07.515Z,14.80
2017-09-19T00:50:33.949Z,15.27
2017-09-19T00:53:00.486Z,14.37
2017-09-19T00:55:26.921Z,14.53
2017-09-19T00:57:53.357Z,14.67
2017-09-19T01:00:20.608Z,14.13
2017-09-19T01:02:47.148Z,14.50
2017-09-19T01:05:13.582Z,14.00
2017-09-19T01:07:40.017Z,14.80
2017-09-19T01:10:06.457Z,14.93
2017-09-19T01:12:32.887Z,14.97
2017-09-19T01:14:59.322Z,14.60
2017-09-19T01:17:26.474Z,13.23
2017-09-19T01:19:52.909Z,14.40
2017-09-19T01:22:19.295Z,13.63
2017-09-19T01:24:45.727Z,14.43
2017-09-19T01:27:12.201Z,14.07
2017-09-19T01:29:38.650Z,14.00
2017-09-19T01:32:05.083Z,14.27
2017-09-19T01:34:32.245Z,13.53
2017-09-19T01:36:58.671Z,14.40
2017-09-19T01:39:25.065Z,13.90
2017-09-19T01:41:51.536Z,12.80
2017-09-19T01:44:18.077Z,13.70
2017-09-19T01:46:44.519Z,15.50
2017-09-19T01:49:10.951Z,14.17
2017-09-19T01:51:38.201Z,13.63
2017-09-19T01:54:04.722Z,14.43
2017-09-19T01:56:31.275Z,13.77
2017-09-19T01:58:57.710Z,14.07
2017-09-19T02:01:24.145Z,13.97
2017-09-19T02:03:50.682Z,14.37
2017-09-19T02:06:17.117Z,15.07
2017-09-19T02:08:44.326Z,14.90
2017-09-19T02:11:10.806Z,13.93
2017-09-19T02:13:37.343Z,14.23
2017-09-19T02:16:03.727Z,15.30
2017-09-19T02:18:30.197Z,14.43
2017-09-19T02:20:56.649Z,14.63
2017-09-19T02:23:23.186Z,14.17
2017-09-19T02:25:50.326Z,14.70
2017-09-19T02:28:16.769Z,14.10
2017-09-19T02:30:43.221Z,16.10
2017-09-19T02:33:09.748Z,15.30
2017-09-19T02:35:36.170Z,16.20
2017-09-19T02:38:02.616Z,18.27
2017-09-19T02:40:29.152Z,18.20
2017-09-19T02:42:56.303Z,18.10
2017-09-19T02:45:22.741Z,18.73
2017-09-19T02:47:49.175Z,19.53
2017-09-19T02:50:15.610Z,19.00
2017-09-19T02:52:42.148Z,18.13
2017-09-19T02:55:08.584Z,18.13
2017-09-19T02:57:35.104Z,16.97
2017-09-19T03:00:02.270Z,17.77
2017-09-19T03:02:28.705Z,18.53
2017-09-19T03:04:55.140Z,17.47
2017-09-19T03:07:21.574Z,18.00
2017-09-19T03:09:48.009Z,17.60
2017-09-19T03:12:14.446Z,17.57
2017-09-19T03:14:40.879Z,17.80
2017-09-19T03:17:08.120Z,18.13
2017-09-19T03:19:34.567Z,19.10
2017-09-19T03:22:01.105Z,17.83
2017-09-19T03:24:27.643Z,18.90
2017-09-19T03:26:54.078Z,17.90
2017-09-19T03:29:20.512Z,17.70
2017-09-19T03:31:46.947Z,17.57
2017-09-19T03:34:14.098Z,17.80
2017-09-19T03:36:40.462Z,16.90
2017-09-19T03:39:06.956Z,16.00
2017-09-19T03:41:33.397Z,15.77
2017-09-19T03:43:59.940Z,16.73
2017-09-19T03:46:26.375Z,15.43
2017-09-19T03:48:52.810Z,15.13
2017-09-19T03:51:20.064Z,15.00
2017-09-19T03:53:46.550Z,14.10
2017-09-19T03:56:13.042Z,15.60
2017-09-19T03:58:39.471Z,15.90
2017-09-19T04:01:05.906Z,15.07
2017-09-19T04:03:32.444Z,15.63
2017-09-19T04:05:58.879Z,16.10
2017-09-19T04:08:26.030Z,14.50
2017-09-19T04:10:52.434Z,14.63
2017-09-19T04:13:19.003Z,15.70
2017-09-19T04:15:45.438Z,14.80
2017-09-19T04:18:11.873Z,15.50
2017-09-19T04:20:38.308Z,14.00
2017-09-19T04:23:04.845Z,14.37
2017-09-19T04:25:31.998Z,14.83
2017-09-19T04:27:58.431Z,14.50
2017-09-19T04:30:24.867Z,14.90
2017-09-19T04:32:51.506Z,15.07
2017-09-19T04:35:18.035Z,15.77
2017-09-19T04:37:44.513Z,14.73
2017-09-19T04:40:10.995Z,15.60
2017-09-19T04:42:38.168Z,16.63
2017-09-19T04:45:04.557Z,17.73
2017-09-19T04:47:31.040Z,16.50
2017-09-19T04:49:57.472Z,17.10
2017-09-19T04:52:23.907Z,18.70
2017-09-19T04:54:50.342Z,17.40
2017-09-19T04:57:16.777Z,18.83
2017-09-19T04:59:43.911Z,19.10
2017-09-19T05:02:10.389Z,18.27
2017-09-19T05:04:36.900Z,19.47
2017-09-19T05:07:03.338Z,18.70
2017-09-19T05:09:29.731Z,17.13
2017-09-19T05:11:56.200Z,17.87
2017-09-19T05:14:22.746Z,18.53
2017-09-19T05:16:49.690Z,18.83
2017-09-19T05:19:16.112Z,17.53
2017-09-19T05:21:42.560Z,18.57
2017-09-19T05:24:09.302Z,18.67
2017-09-19T05:26:35.794Z,17.93
2017-09-19T05:29:02.276Z,20.80
2017-09-19T05:31:28.709Z,18.13
2017-09-19T05:33:55.433Z,17.73
2017-09-19T05:36:21.875Z,19.40
2017-09-19T05:38:48.327Z,21.20
2017-09-19T05:41:14.860Z,23.60
2017-09-19T05:43:41.396Z,23.67
2017-09-19T05:46:08.035Z,22.47
2017-09-19T05:48:34.470Z,21.77
2017-09-19T05:51:00.905Z,20.10
2017-09-19T05:53:27.652Z,18.70
2017-09-19T05:55:54.081Z,20.10
2017-09-19T05:58:20.488Z,19.00
2017-09-19T06:00:48.181Z,17.40
2017-09-19T06:03:14.718Z,16.50
2017-09-19T06:05:41.255Z,16.90
2017-09-19T06:08:07.691Z,17.17
2017-09-19T06:10:34.125Z,17.10
2017-09-19T06:13:00.968Z,20.70
2017-09-19T06:15:27.404Z,22.60
2017-09-19T06:17:53.839Z,24.10
2017-09-19T06:20:20.230Z,22.00
2017-09-19T06:22:46.711Z,20.80
2017-09-19T06:25:13.246Z,21.80
2017-09-19T06:27:39.681Z,23.43
2017-09-19T06:30:06.116Z,28.80
2017-09-19T06:32:32.552Z,31.70
2017-09-19T06:34:58.987Z,33.30
2017-09-19T06:37:25.523Z,28.87
2017-09-19T06:39:51.958Z,28.77
2017-09-19T06:42:18.598Z,40.57
2017-09-19T06:44:45.340Z,28.47
2017-09-19T06:47:11.736Z,28.67
2017-09-19T06:49:38.211Z,33.20
2017-09-19T06:52:04.800Z,30.90
2017-09-19T06:54:31.285Z,20.40
2017-09-19T06:56:57.723Z,18.33
2017-09-19T06:59:24.565Z,23.37
2017-09-19T07:01:50.999Z,24.03
2017-09-19T07:04:17.539Z,22.10
2017-09-19T07:06:44.179Z,23.20
2017-09-19T07:09:10.611Z,21.87
2017-09-19T07:11:37.045Z,21.30
2017-09-19T07:14:03.618Z,21.47
2017-09-19T07:16:30.327Z,21.63
2017-09-19T07:18:56.761Z,20.00
2017-09-19T07:21:23.195Z,18.80
2017-09-19T07:23:50.072Z,20.57
2017-09-19T07:26:16.580Z,20.77
2017-09-19T07:28:43.116Z,19.53
2017-09-19T07:31:09.551Z,20.07
2017-09-19T07:33:36.082Z,19.10
2017-09-19T07:36:02.472Z,19.50
2017-09-19T07:38:29.040Z,17.67
2017-09-19T07:40:55.440Z,16.83
2017-09-19T07:43:21.927Z,16.00
2017-09-19T07:45:48.364Z,15.90
2017-09-19T07:48:14.755Z,14.23
2017-09-19T07:50:41.233Z,14.93
2017-09-19T07:53:08.081Z,13.40
2017-09-19T07:55:34.821Z,15.30
2017-09-19T07:58:01.715Z,14.10
2017-09-19T08:00:28.611Z,14.33
2017-09-19T08:02:55.147Z,13.40
2017-09-19T08:05:21.904Z,12.83
2017-09-19T08:07:48.531Z,12.77
2017-09-19T08:10:15.119Z,13.07
2017-09-19T08:12:41.619Z,13.60
2017-09-19T08:15:08.449Z,12.33
2017-09-19T08:17:35.177Z,12.50
2017-09-19T08:20:01.737Z,13.00
2017-09-19T08:22:28.471Z,12.27
2017-09-19T08:24:55.216Z,12.87
2017-09-19T08:27:21.861Z,12.43
2017-09-19T08:29:48.697Z,12.60
2017-09-19T08:32:15.239Z,12.40
2017-09-19T08:34:42.796Z,11.40
2017-09-19T08:37:09.272Z,12.33
2017-09-19T08:39:36.090Z,12.10
2017-09-19T08:42:02.613Z,12.40
2017-09-19T08:44:29.150Z,12.00
2017-09-19T08:46:55.586Z,12.90
2017-09-19T08:49:22.019Z,11.53
2017-09-19T08:51:48.456Z,12.00
2017-09-19T08:54:15.197Z,11.83
2017-09-19T08:56:41.642Z,12.37
2017-09-19T08:59:08.027Z,11.40
2017-09-19T09:01:34.401Z,13.07
2017-09-19T09:04:00.937Z,13.47
2017-09-19T09:06:27.371Z,13.03
2017-09-19T09:08:53.806Z,12.43
2017-09-19T09:11:20.241Z,11.70
2017-09-19T09:13:46.734Z,13.20
2017-09-19T09:16:13.316Z,13.10
2017-09-19T09:18:39.700Z,11.77
2017-09-19T09:21:06.287Z,12.20
2017-09-19T09:23:32.932Z,12.37
2017-09-19T09:25:59.572Z,12.47
2017-09-19T09:28:26.098Z,11.70
2017-09-19T09:30:53.256Z,12.60
2017-09-19T09:33:19.748Z,13.20
2017-09-19T09:35:46.231Z,12.47
2017-09-19T09:38:12.664Z,13.73
2017-09-19T09:40:39.188Z,13.30
2017-09-19T09:43:05.691Z,12.80
2017-09-19T09:45:32.173Z,12.17
2017-09-19T09:47:58.607Z,12.27
2017-09-19T09:50:25.043Z,12.27
2017-09-19T09:52:51.535Z,12.30
2017-09-19T09:55:18.388Z,12.40
2017-09-19T09:57:45.066Z,12.63
2017-09-19T10:00:11.882Z,12.13
2017-09-19T10:02:38.960Z,12.27
2017-09-19T10:05:05.907Z,11.80
2017-09-19T10:07:32.750Z,12.20
2017-09-19T10:09:59.258Z,12.83
2017-09-19T10:12:25.675Z,11.80
2017-09-19T10:14:52.517Z,12.60
2017-09-19T10:17:19.001Z,13.50
2017-09-19T10:19:45.652Z,11.97
2017-09-19T10:22:12.281Z,12.77
2017-09-19T10:24:38.716Z,12.10
2017-09-19T10:27:05.151Z,12.20
2017-09-19T10:29:31.547Z,12.57
2017-09-19T10:31:58.017Z,13.20
2017-09-19T10:34:24.762Z,12.90
2017-09-19T10:36:51.148Z,13.20
2017-09-19T10:39:17.621Z,13.43
2017-09-19T10:41:44.066Z,12.93
2017-09-19T10:44:10.604Z,13.03
2017-09-19T10:46:37.039Z,15.20
2017-09-19T10:49:03.475Z,14.13
2017-09-19T10:51:30.113Z,12.47
2017-09-19T10:53:56.653Z,12.80
2017-09-19T10:56:23.087Z,13.37
2017-09-19T10:58:49.520Z,12.60
2017-09-19T11:01:15.957Z,13.20
2017-09-19T11:03:42.390Z,62.27
2017-09-19T11:06:08.830Z,38.63
2017-09-19T11:11:06.815Z,13.27
2017-09-19T11:13:34.075Z,14.00
2017-09-19T11:16:00.504Z,14.80
2017-09-19T11:18:26.939Z,13.70
2017-09-19T11:20:53.377Z,13.40
2017-09-19T11:23:19.918Z,13.40
2017-09-19T11:25:46.512Z,13.00
2017-09-19T11:28:13.089Z,12.90
2017-09-19T11:30:40.143Z,13.50
2017-09-19T11:33:06.582Z,11.20
2017-09-19T11:35:33.317Z,11.33
2017-09-19T11:37:59.958Z,10.93
2017-09-19T11:40:26.801Z,10.80
2017-09-19T11:42:53.702Z,10.00
2017-09-19T11:45:20.161Z,11.50
2017-09-19T11:47:46.821Z,11.17
2017-09-19T11:50:13.365Z,11.27
2017-09-19T11:52:40.264Z,10.83
2017-09-19T11:55:07.035Z,11.40
2017-09-19T11:57:33.477Z,10.10
2017-09-19T11:59:59.999Z,11.07
2017-09-19T12:02:27.274Z,10.43
2017-09-19T12:04:53.628Z,10.57
2017-09-19T12:07:20.245Z,9.83
2017-09-19T12:09:46.722Z,10.27
2017-09-19T12:12:13.629Z,10.87
2017-09-19T12:14:40.267Z,10.30
2017-09-19T12:17:06.917Z,10.63
2017-09-19T12:19:33.341Z,10.73
2017-09-19T12:21:59.879Z,10.17
2017-09-19T12:24:26.733Z,10.30
2017-09-19T12:26:53.158Z,10.23
2017-09-19T12:29:20.269Z,10.20
2017-09-19T12:31:46.901Z,9.67
2017-09-19T12:34:13.692Z,10.10
2017-09-19T12:36:40.322Z,10.00
2017-09-19T12:39:06.765Z,10.10
2017-09-19T12:41:33.202Z,9.87
2017-09-19T12:43:59.695Z,9.93
2017-09-19T12:46:26.169Z,10.00
2017-09-19T12:48:52.713Z,10.40
2017-09-19T12:51:19.251Z,9.37
2017-09-19T12:53:45.890Z,10.30
2017-09-19T12:56:12.425Z,9.93
2017-09-19T12:58:38.862Z,9.50
2017-09-19T13:01:05.297Z,10.20
2017-09-19T13:03:31.882Z,10.10
2017-09-19T13:05:58.693Z,10.90
2017-09-19T13:08:25.318Z,11.10
2017-09-19T13:10:51.975Z,10.60
2017-09-19T13:13:19.077Z,10.17
2017-09-19T13:15:45.804Z,10.77
2017-09-19T13:18:12.797Z,10.60
2017-09-19T13:20:39.751Z,10.90
2017-09-19T13:23:06.896Z,10.30
2017-09-19T13:25:33.332Z,9.97
2017-09-19T13:28:00.484Z,9.53
2017-09-19T13:30:27.020Z,10.67
2017-09-19T13:32:53.557Z,10.30
2017-09-19T13:35:20.151Z,11.23
2017-09-19T13:37:46.588Z,12.00
2017-09-19T13:40:13.066Z,12.37
2017-09-19T13:42:39.606Z,12.60
2017-09-19T13:45:06.603Z,12.50
2017-09-19T13:47:33.078Z,12.20
2017-09-19T13:49:59.799Z,13.07
2017-09-19T13:52:26.221Z,12.77
2017-09-19T13:54:52.782Z,13.60
2017-09-19T13:57:19.226Z,14.40
2017-09-19T13:59:45.621Z,13.50
2017-09-19T14:02:12.621Z,14.00
2017-09-19T14:04:39.157Z,14.70
2017-09-19T14:07:05.591Z,15.67
2017-09-19T14:09:32.744Z,15.00
2017-09-19T14:11:59.161Z,13.77
2017-09-19T14:14:25.708Z,13.37
2017-09-19T14:16:52.159Z,13.17
2017-09-19T14:19:19.404Z,13.47
2017-09-19T14:21:46.200Z,13.63
2017-09-19T14:24:12.683Z,12.57
2017-09-19T14:26:39.120Z,13.00
2017-09-19T14:29:05.862Z,13.20
2017-09-19T14:31:32.294Z,13.00
2017-09-19T14:33:58.825Z,12.40
2017-09-19T14:36:25.582Z,12.57
2017-09-19T14:38:52.419Z,13.70
2017-09-19T14:41:19.471Z,13.60
2017-09-19T14:43:46.108Z,14.10
2017-09-19T14:46:12.685Z,14.30
2017-09-19T14:48:39.636Z,13.80
2017-09-19T14:51:06.027Z,14.27
2017-09-19T14:53:32.565Z,14.67
2017-09-19T14:55:58.999Z,14.73
2017-09-19T14:58:25.434Z,14.17
2017-09-19T15:00:51.870Z,15.80
2017-09-19T15:03:18.512Z,16.23
2017-09-19T15:05:45.046Z,15.70
2017-09-19T15:08:11.482Z,15.67
2017-09-19T15:10:37.898Z,16.50
2017-09-19T15:13:04.453Z,16.30
2017-09-19T15:15:30.893Z,17.07
2017-09-19T15:17:57.323Z,17.80
2017-09-19T15:20:23.758Z,17.77
2017-09-19T15:22:50.296Z,17.90
2017-09-19T15:25:16.834Z,18.03
2017-09-19T15:27:43.271Z,18.30
2017-09-19T15:30:09.654Z,18.93
2017-09-19T15:32:36.139Z,18.43
2017-09-19T15:35:02.556Z,18.63
2017-09-19T15:37:28.999Z,18.70
2017-09-19T15:39:55.442Z,18.23
2017-09-19T15:42:21.866Z,18.77
2017-09-19T15:44:48.331Z,18.97
2017-09-19T15:47:14.749Z,19.57
2017-09-19T15:49:41.184Z,19.83
2017-09-19T15:52:07.620Z,19.77
2017-09-19T15:54:34.154Z,18.20
2017-09-19T15:57:00.589Z,19.17
2017-09-19T15:59:27.042Z,18.70
2017-09-19T16:01:53.616Z,19.67
2017-09-19T16:04:20.099Z,19.23
2017-09-19T16:06:46.533Z,19.43
2017-09-19T16:09:12.969Z,20.13
2017-09-19T16:11:39.403Z,19.37
2017-09-19T16:14:05.941Z,19.40
2017-09-19T16:16:32.376Z,20.17
2017-09-19T16:18:58.810Z,18.60
2017-09-19T16:21:25.963Z,19.70
2017-09-19T16:23:52.502Z,19.17
2017-09-19T16:26:18.935Z,20.00
2017-09-19T16:28:45.370Z,19.37
2017-09-19T16:31:11.805Z,20.07
2017-09-19T16:33:38.241Z,20.20
2017-09-19T16:36:04.674Z,19.17
2017-09-19T16:38:31.930Z,20.00
2017-09-19T16:40:58.296Z,19.03
2017-09-19T16:43:24.790Z,19.90
2017-09-19T16:45:51.235Z,19.90
2017-09-19T16:48:17.619Z,19.13
2017-09-19T16:50:44.001Z,20.80
2017-09-19T16:53:10.538Z,20.13
2017-09-19T16:55:37.645Z,20.37
2017-09-19T16:58:04.123Z,21.90
2017-09-19T17:00:30.560Z,22.17
2017-09-19T17:02:57.098Z,20.50
2017-09-19T17:05:23.533Z,20.70
2017-09-19T17:07:49.966Z,20.40
2017-09-19T17:10:16.402Z,21.90
2017-09-19T17:12:43.607Z,20.17
2017-09-19T17:15:10.091Z,20.77
2017-09-19T17:17:36.526Z,22.47
2017-09-19T17:20:02.959Z,22.00
2017-09-19T17:22:29.394Z,24.10
2017-09-19T17:24:55.830Z,24.33
2017-09-19T17:27:22.264Z,22.20
2017-09-19T17:29:49.406Z,22.40
2017-09-19T17:32:15.851Z,20.73
2017-09-19T17:34:42.287Z,22.20
2017-09-19T17:37:08.721Z,21.43
2017-09-19T17:39:35.157Z,20.73
2017-09-19T17:42:01.591Z,21.23
2017-09-19T17:44:28.129Z,20.70
2017-09-19T17:46:55.280Z,20.90
2017-09-19T17:49:21.716Z,21.37
2017-09-19T17:51:48.256Z,20.77
2017-09-19T17:54:14.790Z,21.70
2017-09-19T17:56:41.224Z,23.40
2017-09-19T17:59:07.611Z,21.80
2017-09-19T18:01:33.993Z,22.17
2017-09-19T18:04:01.349Z,19.80
2017-09-19T18:06:27.778Z,21.40
2017-09-19T18:08:54.219Z,20.60
2017-09-19T18:11:20.703Z,21.67
2017-09-19T18:13:47.191Z,21.40
2017-09-19T18:16:13.575Z,21.00
2017-09-19T18:18:39.958Z,21.00
2017-09-19T18:21:07.212Z,22.07
2017-09-19T18:23:33.754Z,20.40
2017-09-19T18:26:00.185Z,21.83
2017-09-19T18:28:26.721Z,23.17
2017-09-19T18:30:53.158Z,22.20
2017-09-19T18:33:19.647Z,22.10
2017-09-19T18:35:46.089Z,22.00
2017-09-19T18:38:13.280Z,21.90
2017-09-19T18:40:39.717Z,22.10
2017-09-19T18:43:06.150Z,22.83
2017-09-19T18:45:32.585Z,23.20
2017-09-19T18:47:59.020Z,24.13
2017-09-19T18:50:25.454Z,26.00
2017-09-19T18:52:51.992Z,25.00
2017-09-19T18:55:19.044Z,22.57
2017-09-19T18:57:45.476Z,23.80
2017-09-19T19:00:11.913Z,25.30
2017-09-19T19:02:38.448Z,24.47
2017-09-19T19:05:04.986Z,24.27
2017-09-19T19:07:31.421Z,24.20
2017-09-19T19:09:57.857Z,25.63
2017-09-19T19:12:25.008Z,24.17
2017-09-19T19:14:51.443Z,27.10
2017-09-19T19:17:17.878Z,26.83
2017-09-19T19:19:44.312Z,27.53
2017-09-19T19:22:10.747Z,26.50
2017-09-19T19:24:37.140Z,25.17
2017-09-19T19:27:03.567Z,25.40
2017-09-19T19:29:30.768Z,24.23
2017-09-19T19:31:57.204Z,24.80
2017-09-19T19:34:23.741Z,24.73
2017-09-19T19:36:50.176Z,25.27
2017-09-19T19:39:16.610Z,25.23
2017-09-19T19:41:43.046Z,24.30
2017-09-19T19:44:09.572Z,25.50
2017-09-19T19:46:36.682Z,26.00
2017-09-19T19:49:03.173Z,26.10
2017-09-19T19:51:29.556Z,26.10
2017-09-19T19:53:55.990Z,26.93
2017-09-19T19:56:22.476Z,25.90
2017-09-19T19:58:49.039Z,26.20
2017-09-19T20:01:15.446Z,25.67
2017-09-19T20:03:42.600Z,27.13
2017-09-19T20:06:09.035Z,25.00
2017-09-19T20:08:35.469Z,25.50
2017-09-19T20:11:02.007Z,24.63
2017-09-19T20:13:28.543Z,26.80
2017-09-19T20:15:54.980Z,25.03
2017-09-19T20:18:21.519Z,26.73
2017-09-19T20:20:48.873Z,26.33
2017-09-19T20:23:15.418Z,26.60
2017-09-19T20:25:41.946Z,26.23
2017-09-19T20:28:08.381Z,25.20
2017-09-19T20:30:34.911Z,27.70
2017-09-19T20:33:01.455Z,24.63
2017-09-19T20:35:27.890Z,27.87
2017-09-19T20:37:55.041Z,26.70
2017-09-19T20:40:21.477Z,26.43
2017-09-19T20:42:48.014Z,26.27
2017-09-19T20:45:14.444Z,26.23
2017-09-19T20:47:40.986Z,27.50
2017-09-19T20:50:07.422Z,25.63
2017-09-19T20:52:33.958Z,25.37
2017-09-19T20:55:01.110Z,27.07
2017-09-19T20:57:27.547Z,27.70
2017-09-19T20:59:53.980Z,28.40
2017-09-19T21:02:20.415Z,26.57
2017-09-19T21:04:46.904Z,27.53
2017-09-19T21:07:13.387Z,27.37
2017-09-19T21:09:39.822Z,27.63
2017-09-19T21:12:07.077Z,27.77
2017-09-19T21:14:33.569Z,27.30
2017-09-19T21:17:00.049Z,27.73
2017-09-19T21:19:26.437Z,27.97
2017-09-19T21:21:52.918Z,26.57
2017-09-19T21:24:19.456Z,27.70
2017-09-19T21:26:45.891Z,27.50
2017-09-19T21:29:12.266Z,26.77
2017-09-19T21:31:38.759Z,26.90
2017-09-19T21:34:05.297Z,27.87
2017-09-19T21:36:31.733Z,25.80
2017-09-19T21:38:58.167Z,27.40
2017-09-19T21:41:24.705Z,28.30
2017-09-19T21:43:51.223Z,28.63
2017-09-19T21:46:18.394Z,27.73
2017-09-19T21:48:44.829Z,27.13
2017-09-19T21:51:11.227Z,26.77
2017-09-19T21:53:37.598Z,25.43
2017-09-19T21:56:04.032Z,25.27
2017-09-19T21:58:30.467Z,22.60
2017-09-19T22:00:56.901Z,23.67
2017-09-19T22:03:24.053Z,24.37
2017-09-19T22:05:50.519Z,24.40
2017-09-19T22:08:16.875Z,24.77
2017-09-19T22:10:43.345Z,25.60
2017-09-19T22:13:09.892Z,25.23
2017-09-19T22:15:36.330Z,25.37
2017-09-19T22:18:02.764Z,25.33
2017-09-19T22:20:29.916Z,25.17
2017-09-19T22:22:56.454Z,24.67
2017-09-19T22:25:22.877Z,25.50
2017-09-19T22:27:49.321Z,25.73
2017-09-19T22:30:15.759Z,26.80
2017-09-19T22:32:42.296Z,26.47
2017-09-19T22:35:08.728Z,25.60
2017-09-19T22:37:35.882Z,24.80
2017-09-19T22:40:02.235Z,25.80
2017-09-19T22:42:28.626Z,27.23
2017-09-19T22:44:55.084Z,25.53
2017-09-19T22:47:21.514Z,25.80
2017-09-19T22:49:47.955Z,25.70
2017-09-19T22:52:14.390Z,29.47
2017-09-19T22:54:40.830Z,26.70
2017-09-19T22:57:07.259Z,26.83
2017-09-19T22:59:33.694Z,25.70
2017-09-19T23:02:00.129Z,27.30
2017-09-19T23:04:26.666Z,26.73
2017-09-19T23:06:53.103Z,27.10
2017-09-19T23:09:19.537Z,24.37
2017-09-19T23:11:46.640Z,25.07
2017-09-19T23:14:13.123Z,26.57
2017-09-19T23:16:39.500Z,24.90
2017-09-19T23:19:05.970Z,22.70
2017-09-19T23:21:32.427Z,25.43
2017-09-19T23:23:58.959Z,24.50
2017-09-19T23:26:25.397Z,24.50
2017-09-19T23:28:52.551Z,26.13
2017-09-19T23:31:18.986Z,26.13
2017-09-19T23:33:45.524Z,26.67
2017-09-19T23:36:11.945Z,24.40
2017-09-19T23:38:38.495Z,24.20
2017-09-19T23:41:04.931Z,23.90
2017-09-19T23:43:31.469Z,26.67
2017-09-19T23:45:58.617Z,23.57
2017-09-19T23:48:25.055Z,23.20
2017-09-19T23:50:51.490Z,26.10
2017-09-19T23:53:18.027Z,26.67
2017-09-19T23:55:44.465Z,24.23
2017-09-19T23:58:10.896Z,23.70
